sensor_id;sensor_type;location;lat;lon;timestamp;temperature;humidity
1686;DHT22;840;47.980;7.830;2023-11-19T00:02:25;12.00;99.90
1686;DHT22;840;47.980;7.830;2023-11-19T00:04:53;12.00;99.90
1686;DHT22;840;47.980;7.830;2023-11-19T00:07:20;12.10;99.90
1686;DHT22;840;47.980;7.830;2023-11-19T00:09:46;12.20;99.90
1686;DHT22;840;47.980;7.830;2023-11-19T00:12:13;12.30;99.90
1686;DHT22;840;47.980;7.830;2023-11-19T00:14:40;12.30;99.90
1686;DHT22;840;47.980;7.830;2023-11-19T00:17:07;12.30;99.90
1686;DHT22;840;47.980;7.830;2023-11-19T00:19:34;12.40;99.90
1686;DHT22;840;47.980;7.830;2023-11-19T00:22:02;12.40;99.90
1686;DHT22;840;47.980;7.830;2023-11-19T00:24:29;12.40;99.90
1686;DHT22;840;47.980;7.830;2023-11-19T00:26:56;12.40;99.90
1686;DHT22;840;47.980;7.830;2023-11-19T00:29:23;12.40;99.90
1686;DHT22;840;47.980;7.830;2023-11-19T00:31:50;12.40;99.90
1686;DHT22;840;47.980;7.830;2023-11-19T00:34:17;12.50;99.90
1686;DHT22;840;47.980;7.830;2023-11-19T00:36:47;12.50;99.90
1686;DHT22;840;47.980;7.830;2023-11-19T00:39:15;12.50;99.90
1686;DHT22;840;47.980;7.830;2023-11-19T00:41:43;12.50;99.90
1686;DHT22;840;47.980;7.830;2023-11-19T00:44:11;12.50;99.90
1686;DHT22;840;47.980;7.830;2023-11-19T00:46:38;12.60;99.90
1686;DHT22;840;47.980;7.830;2023-11-19T00:49:05;12.60;99.90
1686;DHT22;840;47.980;7.830;2023-11-19T00:51:31;12.60;99.90
1686;DHT22;840;47.980;7.830;2023-11-19T00:53:58;12.60;99.90
1686;DHT22;840;47.980;7.830;2023-11-19T00:56:27;12.60;99.90
1686;DHT22;840;47.980;7.830;2023-11-19T00:58:54;12.60;99.90
1686;DHT22;840;47.980;7.830;2023-11-19T01:01:21;12.60;99.90
1686;DHT22;840;47.980;7.830;2023-11-19T01:03:48;12.70;99.90
1686;DHT22;840;47.980;7.830;2023-11-19T01:06:15;12.70;99.90
1686;DHT22;840;47.980;7.830;2023-11-19T01:08:42;12.70;99.90
1686;DHT22;840;47.980;7.830;2023-11-19T01:11:19;12.70;99.90
1686;DHT22;840;47.980;7.830;2023-11-19T01:13:48;12.80;99.90
1686;DHT22;840;47.980;7.830;2023-11-19T01:16:15;12.70;99.90
1686;DHT22;840;47.980;7.830;2023-11-19T01:18:42;12.70;99.90
1686;DHT22;840;47.980;7.830;2023-11-19T01:21:08;12.80;99.90
1686;DHT22;840;47.980;7.830;2023-11-19T01:23:35;12.70;99.90
1686;DHT22;840;47.980;7.830;2023-11-19T01:26:02;12.80;99.90
1686;DHT22;840;47.980;7.830;2023-11-19T01:28:31;12.80;99.90
1686;DHT22;840;47.980;7.830;2023-11-19T01:30:59;12.90;99.90
1686;DHT22;840;47.980;7.830;2023-11-19T01:33:26;12.90;99.90
1686;DHT22;840;47.980;7.830;2023-11-19T01:35:53;12.90;99.90
1686;DHT22;840;47.980;7.830;2023-11-19T01:38:20;12.90;99.90
1686;DHT22;840;47.980;7.830;2023-11-19T01:40:46;13.00;99.90
1686;DHT22;840;47.980;7.830;2023-11-19T01:43:32;13.00;99.90
1686;DHT22;840;47.980;7.830;2023-11-19T01:46:01;13.10;99.90
1686;DHT22;840;47.980;7.830;2023-11-19T01:48:27;13.10;99.90
1686;DHT22;840;47.980;7.830;2023-11-19T01:50:55;13.10;99.90
1686;DHT22;840;47.980;7.830;2023-11-19T01:53:23;13.10;99.90
1686;DHT22;840;47.980;7.830;2023-11-19T01:55:50;13.10;99.90
1686;DHT22;840;47.980;7.830;2023-11-19T01:58:18;13.10;99.90
1686;DHT22;840;47.980;7.830;2023-11-19T02:00:45;13.10;99.90
1686;DHT22;840;47.980;7.830;2023-11-19T02:03:14;13.00;99.90
1686;DHT22;840;47.980;7.830;2023-11-19T02:05:41;12.90;99.90
1686;DHT22;840;47.980;7.830;2023-11-19T02:08:08;12.70;99.90
1686;DHT22;840;47.980;7.830;2023-11-19T02:10:35;12.60;99.90
1686;DHT22;840;47.980;7.830;2023-11-19T02:13:02;12.40;99.90
1686;DHT22;840;47.980;7.830;2023-11-19T02:15:31;12.40;99.90
1686;DHT22;840;47.980;7.830;2023-11-19T02:18:18;12.30;99.90
1686;DHT22;840;47.980;7.830;2023-11-19T02:20:45;12.30;99.90
1686;DHT22;840;47.980;7.830;2023-11-19T02:23:13;12.20;99.90
1686;DHT22;840;47.980;7.830;2023-11-19T02:25:40;12.20;99.90
1686;DHT22;840;47.980;7.830;2023-11-19T02:28:08;12.10;99.90
1686;DHT22;840;47.980;7.830;2023-11-19T02:30:37;12.10;99.90
1686;DHT22;840;47.980;7.830;2023-11-19T02:33:04;12.10;99.90
1686;DHT22;840;47.980;7.830;2023-11-19T02:35:32;12.00;99.90
1686;DHT22;840;47.980;7.830;2023-11-19T02:37:59;12.00;99.90
1686;DHT22;840;47.980;7.830;2023-11-19T02:40:26;11.90;99.90
1686;DHT22;840;47.980;7.830;2023-11-19T02:42:53;11.90;99.90
1686;DHT22;840;47.980;7.830;2023-11-19T02:45:22;11.90;99.90
1686;DHT22;840;47.980;7.830;2023-11-19T02:47:49;11.90;99.90
1686;DHT22;840;47.980;7.830;2023-11-19T02:50:17;11.90;99.90
1686;DHT22;840;47.980;7.830;2023-11-19T02:52:51;11.90;99.90
1686;DHT22;840;47.980;7.830;2023-11-19T02:55:17;11.90;99.90
1686;DHT22;840;47.980;7.830;2023-11-19T02:57:45;11.90;99.90
1686;DHT22;840;47.980;7.830;2023-11-19T03:00:14;11.90;99.90
1686;DHT22;840;47.980;7.830;2023-11-19T03:02:43;11.80;99.90
1686;DHT22;840;47.980;7.830;2023-11-19T03:05:12;11.80;99.90
1686;DHT22;840;47.980;7.830;2023-11-19T03:07:40;11.80;99.90
1686;DHT22;840;47.980;7.830;2023-11-19T03:10:09;11.80;99.90
1686;DHT22;840;47.980;7.830;2023-11-19T03:12:39;11.80;99.90
1686;DHT22;840;47.980;7.830;2023-11-19T03:15:05;11.80;99.90
1686;DHT22;840;47.980;7.830;2023-11-19T03:17:32;11.80;99.90
1686;DHT22;840;47.980;7.830;2023-11-19T03:20:01;11.80;99.90
1686;DHT22;840;47.980;7.830;2023-11-19T03:22:28;11.80;99.90
1686;DHT22;840;47.980;7.830;2023-11-19T03:24:55;11.90;99.90
1686;DHT22;840;47.980;7.830;2023-11-19T03:27:22;11.90;99.90
1686;DHT22;840;47.980;7.830;2023-11-19T03:29:49;11.90;99.90
1686;DHT22;840;47.980;7.830;2023-11-19T03:32:16;11.90;99.90
1686;DHT22;840;47.980;7.830;2023-11-19T03:34:42;11.90;99.90
1686;DHT22;840;47.980;7.830;2023-11-19T03:37:11;11.90;99.90
1686;DHT22;840;47.980;7.830;2023-11-19T03:39:38;11.90;99.90
1686;DHT22;840;47.980;7.830;2023-11-19T03:42:04;11.90;99.90
1686;DHT22;840;47.980;7.830;2023-11-19T03:44:31;11.90;99.90
1686;DHT22;840;47.980;7.830;2023-11-19T03:46:58;11.90;99.90
1686;DHT22;840;47.980;7.830;2023-11-19T03:49:25;11.90;99.90
1686;DHT22;840;47.980;7.830;2023-11-19T03:51:51;11.90;99.90
1686;DHT22;840;47.980;7.830;2023-11-19T03:54:19;12.00;99.90
1686;DHT22;840;47.980;7.830;2023-11-19T03:56:48;12.00;99.90
1686;DHT22;840;47.980;7.830;2023-11-19T03:59:15;12.00;99.90
1686;DHT22;840;47.980;7.830;2023-11-19T04:01:41;12.10;99.90
1686;DHT22;840;47.980;7.830;2023-11-19T04:04:08;12.10;99.90
1686;DHT22;840;47.980;7.830;2023-11-19T04:06:35;12.10;99.90
1686;DHT22;840;47.980;7.830;2023-11-19T04:09:02;12.10;99.90
1686;DHT22;840;47.980;7.830;2023-11-19T04:11:30;12.10;99.90
1686;DHT22;840;47.980;7.830;2023-11-19T04:13:58;12.10;99.90
1686;DHT22;840;47.980;7.830;2023-11-19T04:16:27;12.10;99.90
1686;DHT22;840;47.980;7.830;2023-11-19T04:18:54;12.10;99.90
1686;DHT22;840;47.980;7.830;2023-11-19T04:21:21;12.10;99.90
1686;DHT22;840;47.980;7.830;2023-11-19T04:23:48;12.20;99.90
1686;DHT22;840;47.980;7.830;2023-11-19T04:26:15;12.10;99.90
1686;DHT22;840;47.980;7.830;2023-11-19T04:28:43;12.10;99.90
1686;DHT22;840;47.980;7.830;2023-11-19T04:31:10;12.10;99.90
1686;DHT22;840;47.980;7.830;2023-11-19T04:33:37;12.20;99.90
1686;DHT22;840;47.980;7.830;2023-11-19T04:36:04;12.20;99.90
1686;DHT22;840;47.980;7.830;2023-11-19T04:38:31;12.20;99.90
1686;DHT22;840;47.980;7.830;2023-11-19T04:40:57;12.20;99.90
1686;DHT22;840;47.980;7.830;2023-11-19T04:43:24;12.20;99.90
1686;DHT22;840;47.980;7.830;2023-11-19T04:45:52;12.30;99.90
1686;DHT22;840;47.980;7.830;2023-11-19T04:48:19;12.20;99.90
1686;DHT22;840;47.980;7.830;2023-11-19T04:50:46;12.30;99.90
1686;DHT22;840;47.980;7.830;2023-11-19T04:53:12;12.30;99.90
1686;DHT22;840;47.980;7.830;2023-11-19T04:55:41;12.30;99.90
1686;DHT22;840;47.980;7.830;2023-11-19T04:58:08;12.40;99.90
1686;DHT22;840;47.980;7.830;2023-11-19T05:00:34;12.40;99.90
1686;DHT22;840;47.980;7.830;2023-11-19T05:03:02;12.40;99.90
1686;DHT22;840;47.980;7.830;2023-11-19T05:05:29;12.40;99.90
1686;DHT22;840;47.980;7.830;2023-11-19T05:07:56;12.40;99.90
1686;DHT22;840;47.980;7.830;2023-11-19T05:10:23;12.50;99.90
1686;DHT22;840;47.980;7.830;2023-11-19T05:12:50;12.50;99.90
1686;DHT22;840;47.980;7.830;2023-11-19T05:15:17;12.50;99.90
1686;DHT22;840;47.980;7.830;2023-11-19T05:17:44;12.50;99.90
1686;DHT22;840;47.980;7.830;2023-11-19T05:20:13;12.50;99.90
1686;DHT22;840;47.980;7.830;2023-11-19T05:22:40;12.50;99.90
1686;DHT22;840;47.980;7.830;2023-11-19T05:25:07;12.60;99.90
1686;DHT22;840;47.980;7.830;2023-11-19T05:27:36;12.60;99.90
1686;DHT22;840;47.980;7.830;2023-11-19T05:30:03;12.60;99.90
1686;DHT22;840;47.980;7.830;2023-11-19T05:32:32;12.50;99.90
1686;DHT22;840;47.980;7.830;2023-11-19T05:34:59;12.50;99.90
1686;DHT22;840;47.980;7.830;2023-11-19T05:37:27;12.60;99.90
1686;DHT22;840;47.980;7.830;2023-11-19T05:39:54;12.60;99.90
1686;DHT22;840;47.980;7.830;2023-11-19T05:42:21;12.60;99.90
1686;DHT22;840;47.980;7.830;2023-11-19T05:44:47;12.60;99.90
1686;DHT22;840;47.980;7.830;2023-11-19T05:47:14;12.60;99.90
1686;DHT22;840;47.980;7.830;2023-11-19T05:49:41;12.60;99.90
1686;DHT22;840;47.980;7.830;2023-11-19T05:52:07;12.70;99.90
1686;DHT22;840;47.980;7.830;2023-11-19T05:54:37;12.70;99.90
1686;DHT22;840;47.980;7.830;2023-11-19T05:57:04;12.70;99.90
1686;DHT22;840;47.980;7.830;2023-11-19T05:59:32;12.70;99.90
1686;DHT22;840;47.980;7.830;2023-11-19T06:01:58;12.70;99.90
1686;DHT22;840;47.980;7.830;2023-11-19T06:04:25;12.70;99.90
1686;DHT22;840;47.980;7.830;2023-11-19T06:06:52;12.70;99.90
1686;DHT22;840;47.980;7.830;2023-11-19T06:09:20;12.70;99.90
1686;DHT22;840;47.980;7.830;2023-11-19T06:11:50;12.70;99.90
1686;DHT22;840;47.980;7.830;2023-11-19T06:14:17;12.80;99.90
1686;DHT22;840;47.980;7.830;2023-11-19T06:16:44;12.80;99.90
1686;DHT22;840;47.980;7.830;2023-11-19T06:19:11;12.80;99.90
1686;DHT22;840;47.980;7.830;2023-11-19T06:21:38;12.90;99.90
1686;DHT22;840;47.980;7.830;2023-11-19T06:24:05;12.90;99.90
1686;DHT22;840;47.980;7.830;2023-11-19T06:26:32;12.90;99.90
1686;DHT22;840;47.980;7.830;2023-11-19T06:29:00;13.00;99.90
1686;DHT22;840;47.980;7.830;2023-11-19T06:31:27;13.00;99.90
1686;DHT22;840;47.980;7.830;2023-11-19T06:33:53;13.00;99.90
1686;DHT22;840;47.980;7.830;2023-11-19T06:36:20;13.00;99.90
1686;DHT22;840;47.980;7.830;2023-11-19T06:38:47;13.00;99.90
1686;DHT22;840;47.980;7.830;2023-11-19T06:41:13;13.00;99.90
1686;DHT22;840;47.980;7.830;2023-11-19T06:43:40;13.00;99.90
1686;DHT22;840;47.980;7.830;2023-11-19T06:46:16;13.10;99.90
1686;DHT22;840;47.980;7.830;2023-11-19T06:48:43;13.10;99.90
1686;DHT22;840;47.980;7.830;2023-11-19T06:51:10;13.10;99.90
1686;DHT22;840;47.980;7.830;2023-11-19T06:53:37;13.10;99.90
1686;DHT22;840;47.980;7.830;2023-11-19T06:56:05;13.10;99.90
1686;DHT22;840;47.980;7.830;2023-11-19T06:58:36;13.10;99.90
1686;DHT22;840;47.980;7.830;2023-11-19T07:01:03;13.10;99.90
1686;DHT22;840;47.980;7.830;2023-11-19T07:03:31;13.10;99.90
1686;DHT22;840;47.980;7.830;2023-11-19T07:05:58;13.20;99.90
1686;DHT22;840;47.980;7.830;2023-11-19T07:08:24;13.20;99.90
1686;DHT22;840;47.980;7.830;2023-11-19T07:10:52;13.20;99.90
1686;DHT22;840;47.980;7.830;2023-11-19T07:13:19;13.20;99.90
1686;DHT22;840;47.980;7.830;2023-11-19T07:15:46;13.20;99.90
1686;DHT22;840;47.980;7.830;2023-11-19T07:18:13;13.30;99.90
1686;DHT22;840;47.980;7.830;2023-11-19T07:20:41;13.30;99.90
1686;DHT22;840;47.980;7.830;2023-11-19T07:23:08;13.30;99.90
1686;DHT22;840;47.980;7.830;2023-11-19T07:25:35;13.40;99.90
1686;DHT22;840;47.980;7.830;2023-11-19T07:28:02;13.40;99.90
1686;DHT22;840;47.980;7.830;2023-11-19T07:30:30;13.40;99.90
1686;DHT22;840;47.980;7.830;2023-11-19T07:32:56;13.40;99.90
1686;DHT22;840;47.980;7.830;2023-11-19T07:35:22;13.50;99.90
1686;DHT22;840;47.980;7.830;2023-11-19T07:37:50;13.50;99.90
1686;DHT22;840;47.980;7.830;2023-11-19T07:40:18;13.50;99.90
1686;DHT22;840;47.980;7.830;2023-11-19T07:42:45;13.50;99.90
1686;DHT22;840;47.980;7.830;2023-11-19T07:45:12;13.60;99.90
1686;DHT22;840;47.980;7.830;2023-11-19T07:47:38;13.60;99.90
1686;DHT22;840;47.980;7.830;2023-11-19T07:50:06;13.60;99.90
1686;DHT22;840;47.980;7.830;2023-11-19T07:52:33;13.60;99.90
1686;DHT22;840;47.980;7.830;2023-11-19T07:55:01;13.60;99.90
1686;DHT22;840;47.980;7.830;2023-11-19T07:57:27;13.60;99.90
1686;DHT22;840;47.980;7.830;2023-11-19T07:59:56;13.60;99.90
1686;DHT22;840;47.980;7.830;2023-11-19T08:02:23;13.70;99.90
1686;DHT22;840;47.980;7.830;2023-11-19T08:04:50;13.70;99.90
1686;DHT22;840;47.980;7.830;2023-11-19T08:07:17;13.70;99.90
1686;DHT22;840;47.980;7.830;2023-11-19T08:09:44;13.70;99.90
1686;DHT22;840;47.980;7.830;2023-11-19T08:12:12;13.80;99.90
1686;DHT22;840;47.980;7.830;2023-11-19T08:14:40;13.80;99.90
1686;DHT22;840;47.980;7.830;2023-11-19T08:17:06;13.80;99.90
1686;DHT22;840;47.980;7.830;2023-11-19T08:19:33;13.80;99.90
1686;DHT22;840;47.980;7.830;2023-11-19T08:22:00;13.80;99.90
1686;DHT22;840;47.980;7.830;2023-11-19T08:24:27;13.80;99.90
1686;DHT22;840;47.980;7.830;2023-11-19T08:26:54;13.80;99.90
1686;DHT22;840;47.980;7.830;2023-11-19T08:29:22;13.80;99.90
1686;DHT22;840;47.980;7.830;2023-11-19T08:31:49;13.80;99.90
1686;DHT22;840;47.980;7.830;2023-11-19T08:34:15;13.80;99.90
1686;DHT22;840;47.980;7.830;2023-11-19T08:36:42;13.90;99.90
1686;DHT22;840;47.980;7.830;2023-11-19T08:39:09;13.90;99.90
1686;DHT22;840;47.980;7.830;2023-11-19T08:41:36;13.90;99.90
1686;DHT22;840;47.980;7.830;2023-11-19T08:44:04;13.90;99.90
1686;DHT22;840;47.980;7.830;2023-11-19T08:46:32;14.00;99.90
1686;DHT22;840;47.980;7.830;2023-11-19T08:48:59;14.00;99.90
1686;DHT22;840;47.980;7.830;2023-11-19T08:51:25;14.00;99.90
1686;DHT22;840;47.980;7.830;2023-11-19T08:53:53;14.10;99.90
1686;DHT22;840;47.980;7.830;2023-11-19T08:56:21;14.10;99.90
1686;DHT22;840;47.980;7.830;2023-11-19T08:58:47;14.10;99.90
1686;DHT22;840;47.980;7.830;2023-11-19T09:01:14;14.10;99.90
1686;DHT22;840;47.980;7.830;2023-11-19T09:03:42;14.10;99.90
1686;DHT22;840;47.980;7.830;2023-11-19T09:06:09;14.10;99.90
1686;DHT22;840;47.980;7.830;2023-11-19T09:08:35;14.10;99.90
1686;DHT22;840;47.980;7.830;2023-11-19T09:11:06;14.20;99.90
1686;DHT22;840;47.980;7.830;2023-11-19T09:13:34;14.20;99.90
1686;DHT22;840;47.980;7.830;2023-11-19T09:16:00;14.20;99.90
1686;DHT22;840;47.980;7.830;2023-11-19T09:18:29;14.30;99.90
1686;DHT22;840;47.980;7.830;2023-11-19T09:20:57;14.30;99.90
1686;DHT22;840;47.980;7.830;2023-11-19T09:23:23;14.30;99.90
1686;DHT22;840;47.980;7.830;2023-11-19T09:25:51;14.30;99.90
1686;DHT22;840;47.980;7.830;2023-11-19T09:28:17;14.30;99.90
1686;DHT22;840;47.980;7.830;2023-11-19T09:30:44;14.30;99.90
1686;DHT22;840;47.980;7.830;2023-11-19T09:33:11;14.30;99.90
1686;DHT22;840;47.980;7.830;2023-11-19T09:35:38;14.30;99.90
1686;DHT22;840;47.980;7.830;2023-11-19T09:38:06;14.30;99.90
1686;DHT22;840;47.980;7.830;2023-11-19T09:40:33;14.20;99.90
1686;DHT22;840;47.980;7.830;2023-11-19T09:42:59;14.20;99.90
1686;DHT22;840;47.980;7.830;2023-11-19T09:45:27;14.30;99.90
1686;DHT22;840;47.980;7.830;2023-11-19T09:47:55;14.30;99.90
1686;DHT22;840;47.980;7.830;2023-11-19T09:50:23;14.30;99.90
1686;DHT22;840;47.980;7.830;2023-11-19T09:52:50;14.30;99.90
1686;DHT22;840;47.980;7.830;2023-11-19T09:55:18;14.40;99.90
1686;DHT22;840;47.980;7.830;2023-11-19T09:57:47;14.30;99.90
1686;DHT22;840;47.980;7.830;2023-11-19T10:00:17;14.30;99.90
1686;DHT22;840;47.980;7.830;2023-11-19T10:02:45;14.40;99.90
1686;DHT22;840;47.980;7.830;2023-11-19T10:05:13;14.40;99.90
1686;DHT22;840;47.980;7.830;2023-11-19T10:07:40;14.40;99.90
1686;DHT22;840;47.980;7.830;2023-11-19T10:10:07;14.40;99.90
1686;DHT22;840;47.980;7.830;2023-11-19T10:12:37;14.40;99.90
1686;DHT22;840;47.980;7.830;2023-11-19T10:15:06;14.40;99.90
1686;DHT22;840;47.980;7.830;2023-11-19T10:17:36;14.40;99.90
1686;DHT22;840;47.980;7.830;2023-11-19T10:20:03;14.40;99.90
1686;DHT22;840;47.980;7.830;2023-11-19T10:22:30;14.40;99.90
1686;DHT22;840;47.980;7.830;2023-11-19T10:24:57;14.40;99.90
1686;DHT22;840;47.980;7.830;2023-11-19T10:27:24;14.40;99.90
1686;DHT22;840;47.980;7.830;2023-11-19T10:29:53;14.50;99.90
1686;DHT22;840;47.980;7.830;2023-11-19T10:32:19;14.50;99.90
1686;DHT22;840;47.980;7.830;2023-11-19T10:34:46;14.60;99.90
1686;DHT22;840;47.980;7.830;2023-11-19T10:37:27;14.60;99.90
1686;DHT22;840;47.980;7.830;2023-11-19T10:39:55;14.70;99.90
1686;DHT22;840;47.980;7.830;2023-11-19T10:42:22;14.70;99.90
1686;DHT22;840;47.980;7.830;2023-11-19T10:44:49;14.80;99.90
1686;DHT22;840;47.980;7.830;2023-11-19T10:47:19;14.80;99.90
1686;DHT22;840;47.980;7.830;2023-11-19T10:49:46;14.80;99.90
1686;DHT22;840;47.980;7.830;2023-11-19T10:52:17;14.90;99.90
1686;DHT22;840;47.980;7.830;2023-11-19T10:54:44;14.90;99.90
1686;DHT22;840;47.980;7.830;2023-11-19T10:57:16;15.00;99.90
1686;DHT22;840;47.980;7.830;2023-11-19T10:59:47;15.00;99.90
1686;DHT22;840;47.980;7.830;2023-11-19T11:02:22;15.00;99.90
1686;DHT22;840;47.980;7.830;2023-11-19T11:04:51;15.10;99.90
1686;DHT22;840;47.980;7.830;2023-11-19T11:07:21;15.10;99.90
1686;DHT22;840;47.980;7.830;2023-11-19T11:09:52;15.20;99.90
1686;DHT22;840;47.980;7.830;2023-11-19T11:12:21;15.30;99.90
1686;DHT22;840;47.980;7.830;2023-11-19T11:14:49;15.40;99.90
1686;DHT22;840;47.980;7.830;2023-11-19T11:17:18;15.50;99.90
1686;DHT22;840;47.980;7.830;2023-11-19T11:19:46;15.60;99.90
1686;DHT22;840;47.980;7.830;2023-11-19T11:22:14;15.60;99.90
1686;DHT22;840;47.980;7.830;2023-11-19T11:25:11;15.70;99.90
1686;DHT22;840;47.980;7.830;2023-11-19T11:27:55;15.70;99.90
1686;DHT22;840;47.980;7.830;2023-11-19T11:30:31;15.60;99.90
1686;DHT22;840;47.980;7.830;2023-11-19T11:33:11;15.50;99.90
1686;DHT22;840;47.980;7.830;2023-11-19T11:35:49;15.50;99.90
1686;DHT22;840;47.980;7.830;2023-11-19T11:38:22;15.50;99.90
1686;DHT22;840;47.980;7.830;2023-11-19T11:41:14;15.50;99.90
1686;DHT22;840;47.980;7.830;2023-11-19T11:43:45;15.50;99.90
1686;DHT22;840;47.980;7.830;2023-11-19T11:49:14;15.50;99.90
1686;DHT22;840;47.980;7.830;2023-11-19T11:52:01;15.50;99.90
1686;DHT22;840;47.980;7.830;2023-11-19T11:54:29;15.50;99.90
1686;DHT22;840;47.980;7.830;2023-11-19T11:57:07;15.40;99.90
1686;DHT22;840;47.980;7.830;2023-11-19T11:59:48;15.40;99.90
1686;DHT22;840;47.980;7.830;2023-11-19T12:02:16;15.40;99.90
1686;DHT22;840;47.980;7.830;2023-11-19T12:04:47;15.40;99.90
1686;DHT22;840;47.980;7.830;2023-11-19T12:07:16;15.40;99.90
1686;DHT22;840;47.980;7.830;2023-11-19T12:09:47;15.40;99.90
1686;DHT22;840;47.980;7.830;2023-11-19T12:12:21;15.40;99.90
1686;DHT22;840;47.980;7.830;2023-11-19T12:15:05;15.50;99.90
1686;DHT22;840;47.980;7.830;2023-11-19T12:17:37;15.50;99.90
1686;DHT22;840;47.980;7.830;2023-11-19T12:20:11;15.50;99.90
1686;DHT22;840;47.980;7.830;2023-11-19T12:22:38;15.40;99.90
1686;DHT22;840;47.980;7.830;2023-11-19T12:25:06;15.40;99.90
1686;DHT22;840;47.980;7.830;2023-11-19T12:27:34;15.40;99.90
1686;DHT22;840;47.980;7.830;2023-11-19T12:30:01;15.30;99.90
1686;DHT22;840;47.980;7.830;2023-11-19T12:32:40;15.30;99.90
1686;DHT22;840;47.980;7.830;2023-11-19T12:35:08;15.30;99.90
1686;DHT22;840;47.980;7.830;2023-11-19T12:37:41;15.30;99.90
1686;DHT22;840;47.980;7.830;2023-11-19T12:40:16;15.30;99.90
1686;DHT22;840;47.980;7.830;2023-11-19T12:42:44;15.40;99.90
1686;DHT22;840;47.980;7.830;2023-11-19T12:45:14;15.40;99.90
1686;DHT22;840;47.980;7.830;2023-11-19T12:47:42;15.40;99.90
1686;DHT22;840;47.980;7.830;2023-11-19T12:50:10;15.40;99.90
1686;DHT22;840;47.980;7.830;2023-11-19T12:52:37;15.50;99.90
1686;DHT22;840;47.980;7.830;2023-11-19T12:55:24;15.50;99.90
1686;DHT22;840;47.980;7.830;2023-11-19T12:57:51;15.50;99.90
1686;DHT22;840;47.980;7.830;2023-11-19T13:00:22;15.50;99.90
1686;DHT22;840;47.980;7.830;2023-11-19T13:02:50;15.50;99.90
1686;DHT22;840;47.980;7.830;2023-11-19T13:05:27;15.50;99.90
1686;DHT22;840;47.980;7.830;2023-11-19T13:08:01;15.50;99.90
1686;DHT22;840;47.980;7.830;2023-11-19T13:10:33;15.40;99.90
1686;DHT22;840;47.980;7.830;2023-11-19T13:13:05;15.40;99.90
1686;DHT22;840;47.980;7.830;2023-11-19T13:15:32;15.30;99.90
1686;DHT22;840;47.980;7.830;2023-11-19T13:17:59;15.30;99.90
1686;DHT22;840;47.980;7.830;2023-11-19T13:20:26;15.20;99.90
1686;DHT22;840;47.980;7.830;2023-11-19T13:22:57;15.10;99.90
1686;DHT22;840;47.980;7.830;2023-11-19T13:25:25;15.10;99.90
1686;DHT22;840;47.980;7.830;2023-11-19T13:27:53;15.10;99.90
1686;DHT22;840;47.980;7.830;2023-11-19T13:30:20;15.10;99.90
1686;DHT22;840;47.980;7.830;2023-11-19T13:32:48;15.10;99.90
1686;DHT22;840;47.980;7.830;2023-11-19T13:35:15;15.10;99.90
1686;DHT22;840;47.980;7.830;2023-11-19T13:37:42;15.10;99.90
1686;DHT22;840;47.980;7.830;2023-11-19T13:40:10;15.10;99.90
1686;DHT22;840;47.980;7.830;2023-11-19T13:42:39;15.10;99.90
1686;DHT22;840;47.980;7.830;2023-11-19T13:45:09;15.10;99.90
1686;DHT22;840;47.980;7.830;2023-11-19T13:47:37;15.10;99.90
1686;DHT22;840;47.980;7.830;2023-11-19T13:50:07;15.20;99.90
1686;DHT22;840;47.980;7.830;2023-11-19T13:52:35;15.20;99.90
1686;DHT22;840;47.980;7.830;2023-11-19T13:55:02;15.30;99.90
1686;DHT22;840;47.980;7.830;2023-11-19T13:57:30;15.40;99.90
1686;DHT22;840;47.980;7.830;2023-11-19T13:59:57;15.40;99.90
1686;DHT22;840;47.980;7.830;2023-11-19T14:02:25;15.50;99.90
1686;DHT22;840;47.980;7.830;2023-11-19T14:04:51;15.60;99.90
1686;DHT22;840;47.980;7.830;2023-11-19T14:07:18;15.60;99.90
1686;DHT22;840;47.980;7.830;2023-11-19T14:09:45;15.70;99.90
1686;DHT22;840;47.980;7.830;2023-11-19T14:12:12;15.70;99.90
1686;DHT22;840;47.980;7.830;2023-11-19T14:14:39;15.80;99.90
1686;DHT22;840;47.980;7.830;2023-11-19T14:17:07;15.80;99.90
1686;DHT22;840;47.980;7.830;2023-11-19T14:19:35;15.80;99.90
1686;DHT22;840;47.980;7.830;2023-11-19T14:22:03;15.80;99.90
1686;DHT22;840;47.980;7.830;2023-11-19T14:24:30;15.80;99.90
1686;DHT22;840;47.980;7.830;2023-11-19T14:26:57;15.80;99.90
1686;DHT22;840;47.980;7.830;2023-11-19T14:29:24;15.80;99.90
1686;DHT22;840;47.980;7.830;2023-11-19T14:31:52;15.70;99.90
1686;DHT22;840;47.980;7.830;2023-11-19T14:34:19;15.70;99.90
1686;DHT22;840;47.980;7.830;2023-11-19T14:36:47;15.60;99.90
1686;DHT22;840;47.980;7.830;2023-11-19T14:39:14;15.60;99.90
1686;DHT22;840;47.980;7.830;2023-11-19T14:41:42;15.60;99.90
1686;DHT22;840;47.980;7.830;2023-11-19T14:44:09;15.50;99.90
1686;DHT22;840;47.980;7.830;2023-11-19T14:46:36;15.50;99.90
1686;DHT22;840;47.980;7.830;2023-11-19T14:49:03;15.40;99.90
1686;DHT22;840;47.980;7.830;2023-11-19T14:51:30;15.40;99.90
1686;DHT22;840;47.980;7.830;2023-11-19T14:53:58;15.30;99.90
1686;DHT22;840;47.980;7.830;2023-11-19T14:56:25;15.30;99.90
1686;DHT22;840;47.980;7.830;2023-11-19T14:58:51;15.20;99.90
1686;DHT22;840;47.980;7.830;2023-11-19T15:01:18;15.10;99.90
1686;DHT22;840;47.980;7.830;2023-11-19T15:03:45;15.10;99.90
1686;DHT22;840;47.980;7.830;2023-11-19T15:06:12;15.10;99.90
1686;DHT22;840;47.980;7.830;2023-11-19T15:08:39;15.10;99.90
1686;DHT22;840;47.980;7.830;2023-11-19T15:11:07;15.10;99.90
1686;DHT22;840;47.980;7.830;2023-11-19T15:13:34;15.00;99.90
1686;DHT22;840;47.980;7.830;2023-11-19T15:16:03;15.00;99.90
1686;DHT22;840;47.980;7.830;2023-11-19T15:18:30;14.90;99.90
1686;DHT22;840;47.980;7.830;2023-11-19T15:20:57;14.90;99.90
1686;DHT22;840;47.980;7.830;2023-11-19T15:23:24;14.80;99.90
1686;DHT22;840;47.980;7.830;2023-11-19T15:25:51;14.80;99.90
1686;DHT22;840;47.980;7.830;2023-11-19T15:28:19;14.70;99.90
1686;DHT22;840;47.980;7.830;2023-11-19T15:30:45;14.70;99.90
1686;DHT22;840;47.980;7.830;2023-11-19T15:33:12;14.60;99.90
1686;DHT22;840;47.980;7.830;2023-11-19T15:35:39;14.60;99.90
1686;DHT22;840;47.980;7.830;2023-11-19T15:38:06;14.60;99.90
1686;DHT22;840;47.980;7.830;2023-11-19T15:40:35;14.50;99.90
1686;DHT22;840;47.980;7.830;2023-11-19T15:43:02;14.50;99.90
1686;DHT22;840;47.980;7.830;2023-11-19T15:45:30;14.40;99.90
1686;DHT22;840;47.980;7.830;2023-11-19T15:48:01;14.40;99.90
1686;DHT22;840;47.980;7.830;2023-11-19T15:50:28;14.40;99.90
1686;DHT22;840;47.980;7.830;2023-11-19T15:52:54;14.30;99.90
1686;DHT22;840;47.980;7.830;2023-11-19T15:55:21;14.30;99.90
1686;DHT22;840;47.980;7.830;2023-11-19T15:57:48;14.30;99.90
1686;DHT22;840;47.980;7.830;2023-11-19T16:00:16;14.30;99.90
1686;DHT22;840;47.980;7.830;2023-11-19T16:02:47;14.20;99.90
1686;DHT22;840;47.980;7.830;2023-11-19T16:05:15;14.20;99.90
1686;DHT22;840;47.980;7.830;2023-11-19T16:07:41;14.20;99.90
1686;DHT22;840;47.980;7.830;2023-11-19T16:10:09;14.10;99.90
1686;DHT22;840;47.980;7.830;2023-11-19T16:12:38;14.10;99.90
1686;DHT22;840;47.980;7.830;2023-11-19T16:15:05;14.10;99.90
1686;DHT22;840;47.980;7.830;2023-11-19T16:17:33;14.10;99.90
1686;DHT22;840;47.980;7.830;2023-11-19T16:20:03;14.10;99.90
1686;DHT22;840;47.980;7.830;2023-11-19T16:22:32;14.10;99.90
1686;DHT22;840;47.980;7.830;2023-11-19T16:24:59;14.10;99.90
1686;DHT22;840;47.980;7.830;2023-11-19T16:27:26;14.10;99.90